createdAt,value
2023-07-18T00:01:35.892Z,23.17
2023-07-18T00:04:03.658Z,23.18
2023-07-18T00:06:31.309Z,23.18
2023-07-18T00:08:58.890Z,23.17
2023-07-18T00:11:26.412Z,23.15
2023-07-18T00:13:54.235Z,23.16
2023-07-18T00:16:21.820Z,23.15
2023-07-18T00:18:51.554Z,23.12
2023-07-18T00:21:19.520Z,23.11
2023-07-18T00:23:47.758Z,23.11
2023-07-18T00:26:15.481Z,23.09
2023-07-18T00:28:42.980Z,23.05
2023-07-18T00:31:10.713Z,23.04
2023-07-18T00:33:38.213Z,23.03
2023-07-18T00:36:06.677Z,23.01
2023-07-18T00:38:34.250Z,23.01
2023-07-18T00:41:06.319Z,23.00
2023-07-18T00:43:34.204Z,22.99
2023-07-18T00:46:02.027Z,22.98
2023-07-18T00:48:29.540Z,22.97
2023-07-18T00:50:57.264Z,22.95
2023-07-18T00:53:25.201Z,22.95
2023-07-18T00:55:54.510Z,22.97
2023-07-18T00:58:22.184Z,22.95
2023-07-18T01:00:49.685Z,22.97
2023-07-18T01:03:18.632Z,22.97
2023-07-18T01:05:46.450Z,22.94
2023-07-18T01:08:13.994Z,22.92
2023-07-18T01:10:41.468Z,22.89
2023-07-18T01:13:09.159Z,22.86
2023-07-18T01:15:36.804Z,22.85
2023-07-18T01:18:10.735Z,22.87
2023-07-18T01:20:39.415Z,22.84
2023-07-18T01:23:07.035Z,22.83
2023-07-18T01:25:35.921Z,22.84
2023-07-18T01:28:06.526Z,22.83
2023-07-18T01:30:34.230Z,22.81
2023-07-18T01:45:04.171Z,22.79
2023-07-18T01:47:33.172Z,22.74
2023-07-18T01:50:01.097Z,22.71
2023-07-18T01:52:29.816Z,22.71
2023-07-18T01:55:00.073Z,22.69
2023-07-18T01:57:36.732Z,22.69
2023-07-18T02:00:06.263Z,22.67
2023-07-18T02:02:41.830Z,22.68
2023-07-18T02:05:09.919Z,22.70
2023-07-18T02:07:37.407Z,22.73
2023-07-18T02:10:06.187Z,22.76
2023-07-18T02:12:33.727Z,22.79
2023-07-18T02:15:02.853Z,22.79
2023-07-18T02:17:32.146Z,22.79
2023-07-18T02:20:00.185Z,22.81
2023-07-18T02:22:27.689Z,22.83
2023-07-18T02:24:55.412Z,22.81
2023-07-18T02:27:23.695Z,22.81
2023-07-18T02:29:51.639Z,22.81
2023-07-18T02:32:19.537Z,22.79
2023-07-18T02:34:47.108Z,22.81
2023-07-18T02:37:14.639Z,22.78
2023-07-18T02:39:44.016Z,22.78
2023-07-18T02:42:11.655Z,22.76
2023-07-18T02:44:39.203Z,22.76
2023-07-18T02:47:07.110Z,22.79
2023-07-18T02:49:34.684Z,22.80
2023-07-18T02:52:02.699Z,22.81
2023-07-18T02:54:30.886Z,22.87
2023-07-18T02:56:59.718Z,22.92
2023-07-18T02:59:27.333Z,22.97
2023-07-18T03:01:55.704Z,23.03
2023-07-18T03:04:23.267Z,23.07
2023-07-18T03:06:54.282Z,23.09
2023-07-18T03:09:23.000Z,23.07
2023-07-18T03:11:53.837Z,23.08
2023-07-18T03:14:21.692Z,23.12
2023-07-18T03:16:49.320Z,23.18
2023-07-18T03:19:16.907Z,23.22
2023-07-18T03:21:47.359Z,23.28
2023-07-18T03:24:14.862Z,23.34
2023-07-18T03:26:43.333Z,23.38
2023-07-18T03:29:10.844Z,23.42
2023-07-18T03:31:41.118Z,23.49
2023-07-18T03:34:08.969Z,23.57
2023-07-18T03:36:38.267Z,23.65
2023-07-18T03:39:07.406Z,23.73
2023-07-18T03:41:34.895Z,23.81
2023-07-18T03:44:02.453Z,23.87
2023-07-18T03:46:30.105Z,23.90
2023-07-18T03:48:57.936Z,23.92
2023-07-18T03:51:26.517Z,23.96
2023-07-18T03:53:56.511Z,24.03
2023-07-18T03:56:24.743Z,24.11
2023-07-18T03:58:52.935Z,24.15
2023-07-18T04:01:20.850Z,24.20
2023-07-18T04:03:48.567Z,24.22
2023-07-18T04:06:16.953Z,24.28
2023-07-18T04:08:45.012Z,24.33
2023-07-18T04:11:12.570Z,24.34
2023-07-18T04:13:40.081Z,24.41
2023-07-18T04:16:08.590Z,24.52
2023-07-18T04:18:36.248Z,24.59
2023-07-18T04:21:04.161Z,24.67
2023-07-18T04:23:31.907Z,24.75
2023-07-18T04:26:00.800Z,24.81
2023-07-18T04:28:29.188Z,24.86
2023-07-18T04:30:56.906Z,24.88
2023-07-18T04:33:24.524Z,24.93
2023-07-18T04:35:52.013Z,24.98
2023-07-18T04:38:19.929Z,24.98
2023-07-18T04:40:47.695Z,24.99
2023-07-18T04:43:15.237Z,25.00
2023-07-18T04:45:47.132Z,25.03
2023-07-18T04:48:17.597Z,25.12
2023-07-18T04:50:46.956Z,25.19
2023-07-18T04:53:14.507Z,25.23
2023-07-18T04:55:42.083Z,25.29
2023-07-18T04:58:09.608Z,25.33
2023-07-18T05:00:38.055Z,25.34
2023-07-18T05:03:06.903Z,25.37
2023-07-18T05:05:34.608Z,25.41
2023-07-18T05:08:03.456Z,25.45
2023-07-18T05:10:31.007Z,25.51
2023-07-18T05:12:58.604Z,25.58
2023-07-18T05:15:26.608Z,25.66
2023-07-18T05:17:54.223Z,25.76
2023-07-18T05:20:21.793Z,25.83
2023-07-18T05:22:49.394Z,25.89
2023-07-18T05:25:18.318Z,25.97
2023-07-18T05:27:45.997Z,26.06
2023-07-18T05:30:15.334Z,26.14
2023-07-18T05:32:43.387Z,26.20
2023-07-18T05:35:12.578Z,26.22
2023-07-18T05:37:40.296Z,26.21
2023-07-18T05:40:11.055Z,26.19
2023-07-18T05:42:42.199Z,26.14
2023-07-18T05:45:10.595Z,26.09
2023-07-18T05:47:39.787Z,26.09
2023-07-18T05:50:08.584Z,26.12
2023-07-18T05:52:39.805Z,26.18
2023-07-18T05:55:08.903Z,26.25
2023-07-18T05:57:37.574Z,26.34
2023-07-18T06:00:12.565Z,26.41
2023-07-18T06:02:43.154Z,26.43
2023-07-18T06:05:11.556Z,26.42
2023-07-18T06:07:39.236Z,26.44
2023-07-18T06:10:09.945Z,26.49
2023-07-18T06:12:37.655Z,26.49
2023-07-18T06:15:08.859Z,26.50
2023-07-18T06:17:37.317Z,26.53
2023-07-18T06:20:24.152Z,26.61
2023-07-18T06:22:52.046Z,26.73
2023-07-18T06:25:20.120Z,26.78
2023-07-18T06:27:47.855Z,26.84
2023-07-18T06:30:15.766Z,26.92
2023-07-18T06:32:43.564Z,27.00
2023-07-18T06:35:31.596Z,27.09
2023-07-18T06:38:02.585Z,27.27
2023-07-18T06:40:30.252Z,27.47
2023-07-18T06:42:58.131Z,27.62
2023-07-18T06:45:27.731Z,27.70
2023-07-18T06:47:58.327Z,27.70
2023-07-18T06:50:26.436Z,27.70
2023-07-18T06:52:54.271Z,27.72
2023-07-18T06:55:21.951Z,27.74
2023-07-18T06:57:50.091Z,27.76
2023-07-18T07:00:18.363Z,27.78
2023-07-18T07:02:46.456Z,27.80
2023-07-18T07:05:15.871Z,27.82
2023-07-18T07:07:43.743Z,27.90
2023-07-18T07:10:12.058Z,27.99
2023-07-18T07:12:39.763Z,28.11
2023-07-18T07:15:08.346Z,28.21
2023-07-18T07:17:36.033Z,28.28
2023-07-18T07:20:05.686Z,28.29
2023-07-18T07:22:33.999Z,28.26
2023-07-18T07:25:04.557Z,28.22
2023-07-18T07:27:33.031Z,28.16
2023-07-18T07:30:39.979Z,28.14
2023-07-18T07:33:22.830Z,28.14
2023-07-18T07:35:53.973Z,28.12
2023-07-18T07:38:37.411Z,28.13
2023-07-18T07:41:10.185Z,28.19
2023-07-18T07:43:39.271Z,28.28
2023-07-18T07:46:07.095Z,28.29
2023-07-18T07:48:37.267Z,28.33
2023-07-18T07:51:05.202Z,28.42
2023-07-18T07:53:35.298Z,28.53
2023-07-18T07:56:04.083Z,28.67
2023-07-18T07:58:32.400Z,28.88
2023-07-18T08:01:03.639Z,29.12
2023-07-18T08:03:31.887Z,29.38
2023-07-18T08:06:02.502Z,29.64
2023-07-18T08:08:32.637Z,29.83
2023-07-18T08:11:00.337Z,29.96
2023-07-18T08:13:29.971Z,29.99
2023-07-18T08:15:57.800Z,29.89
2023-07-18T08:18:27.641Z,29.78
2023-07-18T08:20:55.810Z,29.63
2023-07-18T08:23:26.341Z,29.53
2023-07-18T08:25:55.813Z,29.36
2023-07-18T08:28:27.209Z,29.19
2023-07-18T08:30:56.522Z,29.01
2023-07-18T08:33:33.199Z,28.79
2023-07-18T08:36:01.168Z,28.57
2023-07-18T08:38:31.995Z,28.25
2023-07-18T08:40:59.835Z,28.05
2023-07-18T08:43:28.161Z,27.86
2023-07-18T08:46:02.757Z,27.80
2023-07-18T08:48:33.220Z,27.72
2023-07-18T08:51:05.891Z,27.61
2023-07-18T08:53:35.874Z,27.45
2023-07-18T08:56:09.766Z,27.33
2023-07-18T08:58:38.258Z,27.29
2023-07-18T09:01:11.999Z,27.35
2023-07-18T09:03:39.991Z,27.40
2023-07-18T09:06:19.633Z,27.46
2023-07-18T09:08:48.341Z,27.55
2023-07-18T09:11:22.705Z,27.62
2023-07-18T09:13:50.628Z,27.63
2023-07-18T09:16:22.809Z,27.58
2023-07-18T09:18:52.395Z,27.56
2023-07-18T09:21:21.150Z,27.56
2023-07-18T09:23:49.888Z,27.54
2023-07-18T09:26:22.598Z,27.54
2023-07-18T09:28:53.029Z,27.58
2023-07-18T14:31:10.132Z,28.26
2023-07-18T14:33:55.208Z,28.27
2023-07-18T14:36:31.430Z,28.29
2023-07-18T14:38:58.459Z,28.23
2023-07-18T14:41:25.239Z,28.22
2023-07-18T14:43:52.651Z,28.25
2023-07-18T14:46:19.578Z,28.24
2023-07-18T14:48:47.176Z,28.21
2023-07-18T14:51:16.718Z,28.16
2023-07-18T14:53:43.792Z,28.11
2023-07-18T14:56:14.802Z,28.05
2023-07-18T14:58:42.865Z,27.96
2023-07-18T15:01:11.599Z,27.88
2023-07-18T15:03:38.913Z,27.79
2023-07-18T15:06:05.893Z,27.65
2023-07-18T15:08:34.693Z,27.56
2023-07-18T15:11:01.814Z,27.60
2023-07-18T15:13:30.073Z,27.67
2023-07-18T15:15:59.183Z,27.72
2023-07-18T15:18:26.972Z,27.86
2023-07-18T15:20:54.173Z,28.06
2023-07-18T15:23:21.533Z,28.25
2023-07-18T15:25:51.356Z,28.47
2023-07-18T15:31:13.770Z,28.83
2023-07-18T15:33:41.251Z,29.02
2023-07-18T15:36:08.628Z,29.18
2023-07-18T15:38:36.114Z,29.32
2023-07-18T15:41:02.764Z,29.43
2023-07-18T15:43:30.305Z,29.57
2023-07-18T15:45:59.427Z,29.71
2023-07-18T15:48:27.364Z,29.85
2023-07-18T15:50:54.019Z,29.97
2023-07-18T15:53:20.881Z,30.08
2023-07-18T15:55:49.092Z,30.12
2023-07-18T15:58:16.940Z,30.12
2023-07-18T16:00:44.504Z,30.12
2023-07-18T16:03:12.558Z,30.08
2023-07-18T16:05:43.070Z,30.00
2023-07-18T16:08:09.882Z,29.90
2023-07-18T16:10:38.014Z,29.81
2023-07-18T16:13:05.027Z,29.73
2023-07-18T16:15:32.110Z,29.63
2023-07-18T16:20:50.197Z,29.49
2023-07-18T16:23:17.062Z,29.41
2023-07-18T16:25:44.866Z,29.34
2023-07-18T16:28:11.764Z,29.23
2023-07-18T16:30:39.622Z,29.13
2023-07-18T16:33:06.795Z,29.00
2023-07-18T16:35:34.189Z,28.91
2023-07-18T16:38:01.377Z,28.86
2023-07-18T16:40:28.426Z,28.80
2023-07-18T16:42:57.707Z,28.73
2023-07-18T16:45:24.931Z,28.69
2023-07-18T16:47:52.047Z,28.62
2023-07-18T16:50:19.040Z,28.57
2023-07-18T16:52:47.200Z,28.56
2023-07-18T16:55:14.111Z,28.55
2023-07-18T16:57:41.386Z,28.52
2023-07-18T17:00:09.157Z,28.50
2023-07-18T17:02:36.697Z,28.50
2023-07-18T17:05:03.832Z,28.49
2023-07-18T17:07:31.029Z,28.45
2023-07-18T17:10:00.305Z,28.45
2023-07-18T17:12:27.504Z,28.42
2023-07-18T17:14:55.973Z,28.39
2023-07-18T17:17:23.820Z,28.35
2023-07-18T17:20:05.117Z,28.33
2023-07-18T17:22:35.018Z,28.30
2023-07-18T17:25:03.100Z,28.27
2023-07-18T17:27:30.285Z,28.24
2023-07-18T17:29:57.060Z,28.21
2023-07-18T17:32:24.311Z,28.16
2023-07-18T17:34:53.362Z,28.07
2023-07-18T17:37:20.638Z,28.00
2023-07-18T17:39:47.587Z,27.93
2023-07-18T17:42:14.477Z,27.83
2023-07-18T17:44:41.688Z,27.75
2023-07-18T17:47:09.174Z,27.68
2023-07-18T17:49:37.308Z,27.59
2023-07-18T17:52:04.789Z,27.51
2023-07-18T17:54:33.602Z,27.45
2023-07-18T17:57:00.957Z,27.40
2023-07-18T17:59:28.070Z,27.35
2023-07-18T18:04:38.498Z,27.29
2023-07-18T18:07:06.319Z,27.27
2023-07-18T18:09:34.589Z,27.25
2023-07-18T18:12:01.773Z,27.25
2023-07-18T18:14:29.387Z,27.22
2023-07-18T18:16:56.788Z,27.19
2023-07-18T18:19:23.700Z,27.17
2023-07-18T18:21:51.256Z,27.15
2023-07-18T18:24:18.090Z,27.11
2023-07-18T18:26:45.403Z,27.08
2023-07-18T18:29:13.678Z,27.04
2023-07-18T18:31:41.025Z,27.00
2023-07-18T18:34:08.137Z,26.97
2023-07-18T18:36:35.384Z,26.94
2023-07-18T18:39:02.392Z,26.90
2023-07-18T18:41:32.102Z,26.86
2023-07-18T18:43:58.938Z,26.82
2023-07-18T18:46:28.247Z,26.79
2023-07-18T18:49:01.571Z,26.74
2023-07-18T18:51:31.171Z,26.71
2023-07-18T18:53:57.991Z,26.62
2023-07-18T18:56:25.623Z,26.53
2023-07-18T18:58:52.398Z,26.51
2023-07-18T19:01:19.416Z,26.44
2023-07-18T19:03:46.861Z,26.38
2023-07-18T19:06:13.779Z,26.34
2023-07-18T19:08:42.587Z,26.30
2023-07-18T19:11:09.371Z,26.27
2023-07-18T19:13:37.176Z,26.22
2023-07-18T19:16:04.411Z,26.18
2023-07-18T19:18:31.694Z,26.15
2023-07-18T19:20:58.861Z,26.12
2023-07-18T19:23:25.738Z,26.11
2023-07-18T19:25:52.602Z,25.95
2023-07-18T19:28:19.336Z,25.86
2023-07-18T19:30:46.080Z,25.83
2023-07-18T19:33:12.889Z,25.79
2023-07-18T19:35:39.609Z,25.74
2023-07-18T19:38:06.774Z,25.74
2023-07-18T19:40:35.186Z,25.72
2023-07-18T19:43:01.965Z,25.68
2023-07-18T19:45:29.559Z,25.65
2023-07-18T19:47:56.596Z,25.62
2023-07-18T19:50:25.185Z,25.60
2023-07-18T19:52:51.904Z,25.57
2023-07-18T19:55:21.670Z,25.55
2023-07-18T19:57:48.750Z,25.55
2023-07-18T20:00:15.688Z,25.54
2023-07-18T20:02:42.611Z,25.50
2023-07-18T20:05:09.751Z,25.49
2023-07-18T20:07:37.890Z,25.51
2023-07-18T20:10:05.307Z,25.51
2023-07-18T20:12:32.171Z,25.50
2023-07-18T20:15:02.007Z,25.45
2023-07-18T20:17:29.458Z,25.42
2023-07-18T20:19:56.532Z,25.37
2023-07-18T20:22:23.936Z,25.35
2023-07-18T20:24:50.755Z,25.34
2023-07-18T20:27:20.666Z,25.31
2023-07-18T20:29:47.437Z,25.29
2023-07-18T20:32:14.739Z,25.28
2023-07-18T20:34:43.721Z,25.26
2023-07-18T20:37:10.778Z,25.23
2023-07-18T20:39:37.992Z,25.20
2023-07-18T20:42:05.500Z,25.20
2023-07-18T20:44:35.534Z,25.19
2023-07-18T20:47:02.263Z,25.15
2023-07-18T20:49:29.815Z,25.09
2023-07-18T20:51:56.522Z,25.08
2023-07-18T20:54:23.193Z,25.06
2023-07-18T20:56:50.105Z,25.08
2023-07-18T20:59:18.196Z,25.06
2023-07-18T21:01:44.907Z,25.01
2023-07-18T21:04:12.566Z,24.99
2023-07-18T21:06:41.057Z,24.98
2023-07-18T21:09:07.830Z,24.97
2023-07-18T21:11:34.790Z,24.97
2023-07-18T21:14:04.276Z,24.94
2023-07-18T21:16:31.441Z,24.90
2023-07-18T21:18:58.292Z,24.80
2023-07-18T21:21:25.577Z,24.73
2023-07-18T21:23:55.148Z,24.76
2023-07-18T21:26:26.327Z,24.80
2023-07-18T21:29:03.162Z,24.72
2023-07-18T21:31:32.341Z,24.77
2023-07-18T21:33:59.142Z,24.75
2023-07-18T21:36:26.473Z,24.64
2023-07-18T21:38:53.153Z,24.67
2023-07-18T21:41:21.640Z,24.73
2023-07-18T21:43:49.122Z,24.75
2023-07-18T21:46:18.573Z,24.71
2023-07-18T21:48:45.599Z,24.63
2023-07-18T21:51:12.295Z,24.43
2023-07-18T21:53:38.986Z,24.46
2023-07-18T21:56:05.615Z,24.50
2023-07-18T21:58:35.501Z,24.42
2023-07-18T22:01:05.256Z,24.37
2023-07-18T22:03:35.607Z,24.37
2023-07-18T22:06:03.624Z,24.31
2023-07-18T22:08:31.428Z,24.22
2023-07-18T22:11:00.250Z,24.19
2023-07-18T22:13:29.356Z,24.16
2023-07-18T22:15:58.606Z,24.09
2023-07-18T22:18:28.027Z,24.04
2023-07-18T22:20:55.857Z,24.03
2023-07-18T22:23:23.063Z,23.99
2023-07-18T22:26:03.742Z,23.93
2023-07-18T22:28:36.845Z,23.88
2023-07-18T22:31:03.938Z,23.83
2023-07-18T22:33:30.923Z,23.74
2023-07-18T22:35:57.897Z,23.66
2023-07-18T22:38:24.809Z,23.62
2023-07-18T22:40:52.805Z,23.59
2023-07-18T22:43:19.906Z,23.60
2023-07-18T22:45:48.849Z,23.58
2023-07-18T22:48:15.868Z,23.54
2023-07-18T22:50:42.727Z,23.48
2023-07-18T22:53:09.776Z,23.44
2023-07-18T22:55:37.124Z,23.39
2023-07-18T22:58:03.798Z,23.35
2023-07-18T23:00:31.101Z,23.32
2023-07-18T23:02:58.254Z,23.29
2023-07-18T23:05:25.055Z,23.27
2023-07-18T23:07:52.213Z,23.27
2023-07-18T23:10:19.023Z,23.31
2023-07-18T23:12:45.948Z,23.29
2023-07-18T23:15:12.863Z,23.28
2023-07-18T23:17:39.955Z,23.25
2023-07-18T23:20:09.041Z,23.22
2023-07-18T23:22:35.978Z,23.19
2023-07-18T23:25:05.782Z,23.17
2023-07-18T23:27:33.104Z,23.13
2023-07-18T23:30:00.306Z,23.07
2023-07-18T23:32:27.013Z,23.04
2023-07-18T23:34:53.700Z,23.00
2023-07-18T23:37:21.056Z,22.96
2023-07-18T23:39:47.795Z,22.88
2023-07-18T23:42:14.911Z,22.82
2023-07-18T23:44:41.697Z,22.80
2023-07-18T23:47:08.878Z,22.81
2023-07-18T23:49:36.266Z,22.81
2023-07-18T23:52:03.148Z,22.80
2023-07-18T23:54:30.243Z,22.80
2023-07-18T23:56:57.058Z,22.81
2023-07-18T23:59:24.165Z,22.81
